Terminal Aerodrome Forecast
Issued by NWS Blacksburg, VA

Home | Current Version | Previous Version | Text Only | Print | Product List | Glossary On
Versions: 1 2 3 4 5 6 7 8 9 10 11 12 13 14 15 16 17 18 19 20 21 22 23 24 25 26 27 28 29 30 31 32 33 34
000
FTUS41 KRNK 300002 AAA
TAFLYH
TAF AMD
KLYH 300002Z 3000/3024 11008KT P6SM VCTS SCT011 OVC035CB
      TEMPO 3000/3001 3SM SHRA BR OVC011
     FM300300 06007KT 6SM SHRA BR OVC009
     FM300700 07005KT 5SM BR VCSH OVC006
     FM301200 08004KT 4SM -DZ BR OVC004
     FM301500 04007KT P6SM VCSH OVC012=

USA.gov is the U.S. government's official web portal to all federal, state and local government web resources and services.